Time;durP1;ratioP1;P1;durP2;ratioP2;P2;SDS_P1;SDS_P2;PMS_P1;PMS_P2;Temp;Humidity;BMP_temperature;BMP_pressure;BME280_temperature;BME280_humidity;BME280_pressure;Samples;Min_cycle;Max_cycle;Signal;HPM_P1;HPM_P2
2022/03/17 00:02:27;;;;;;;7.50;1.47;;;4.90;99.90;;;;;;5034399;28;20186;-72
2022/03/17 00:04:53;;;;;;;5.67;1.37;;;4.90;99.90;;;;;;5034106;28;20203;-71
2022/03/17 00:07:19;;;;;;;9.83;1.23;;;4.90;99.90;;;;;;5033847;28;20748;-76
2022/03/17 00:09:45;;;;;;;8.80;1.30;;;4.90;99.90;;;;;;5034057;28;20248;-71
2022/03/17 00:12:11;;;;;;;5.20;1.20;;;4.90;99.90;;;;;;5034276;28;20340;-74
2022/03/17 00:14:37;;;;;;;8.80;1.20;;;4.80;99.90;;;;;;5016388;28;20233;-73
2022/03/17 00:17:03;;;;;;;3.57;0.97;;;4.80;99.90;;;;;;5033950;28;20186;-73
2022/03/17 00:19:29;;;;;;;11.27;1.80;;;4.80;99.90;;;;;;5034130;28;20182;-73
2022/03/17 00:21:55;;;;;;;11.07;1.70;;;4.70;99.90;;;;;;5033942;28;20656;-72
2022/03/17 00:24:20;;;;;;;7.23;1.27;;;4.70;99.90;;;;;;5033751;28;20189;-71
2022/03/17 00:26:46;;;;;;;6.93;1.37;;;4.70;99.90;;;;;;5033645;28;20259;-72
2022/03/17 00:29:12;;;;;;;8.30;1.27;;;4.70;99.90;;;;;;5033743;28;20180;-72
2022/03/17 00:31:39;;;;;;;9.80;1.40;;;4.80;99.90;;;;;;5016032;28;20507;-72
2022/03/17 00:34:06;;;;;;;8.03;1.33;;;5.00;99.90;;;;;;5033479;28;20170;-72
2022/03/17 00:36:34;;;;;;;8.57;1.53;;;4.80;99.90;;;;;;5033485;28;20174;-73
2022/03/17 00:39:00;;;;;;;6.10;1.67;;;4.90;99.90;;;;;;5033406;28;20703;-73
2022/03/17 00:41:26;;;;;;;8.50;1.47;;;4.90;99.90;;;;;;5036616;28;20189;-74
2022/03/17 00:43:51;;;;;;;10.80;1.60;;;4.90;99.90;;;;;;5033350;28;20701;-74
2022/03/17 00:46:17;;;;;;;7.50;1.47;;;4.90;99.90;;;;;;5033084;28;20221;-73
2022/03/17 00:48:43;;;;;;;11.03;1.80;;;4.90;99.90;;;;;;5015560;28;20285;-74
2022/03/17 00:51:09;;;;;;;8.27;1.80;;;4.90;99.90;;;;;;5015656;28;20671;-73
2022/03/17 00:53:34;;;;;;;12.33;2.10;;;4.90;99.90;;;;;;5033048;28;20570;-74
2022/03/17 00:56:00;;;;;;;9.97;1.60;;;4.90;99.90;;;;;;5032990;28;20257;-74
2022/03/17 00:58:29;;;;;;;11.20;1.50;;;4.90;99.90;;;;;;5015719;28;20289;-74
2022/03/17 01:00:54;;;;;;;8.00;1.57;;;4.80;99.90;;;;;;5031738;28;20178;-74
2022/03/17 01:03:20;;;;;;;8.33;1.40;;;4.90;99.90;;;;;;5032922;28;20193;-74
2022/03/17 01:05:45;;;;;;;9.73;1.90;;;4.60;99.90;;;;;;5032804;28;20221;-74
2022/03/17 01:08:11;;;;;;;14.97;1.93;;;4.60;99.90;;;;;;5032802;28;20178;-74
2022/03/17 01:10:38;;;;;;;12.07;1.93;;;4.60;99.90;;;;;;5015273;28;20181;-75
2022/03/17 01:13:06;;;;;;;11.73;1.73;;;4.60;99.90;;;;;;5013404;28;20182;-74
2022/03/17 01:15:31;;;;;;;11.27;1.87;;;4.50;99.90;;;;;;5015749;28;20174;-74
2022/03/17 01:17:57;;;;;;;10.47;2.40;;;4.40;99.90;;;;;;5032682;28;20178;-71
2022/03/17 01:20:23;;;;;;;16.03;2.00;;;4.30;99.90;;;;;;5032844;28;20531;-71
2022/03/17 01:22:49;;;;;;;11.83;1.80;;;4.40;99.90;;;;;;5032700;28;20482;-71
2022/03/17 01:25:15;;;;;;;9.27;1.47;;;4.50;99.90;;;;;;5014944;28;20186;-71
2022/03/17 01:27:42;;;;;;;13.23;2.30;;;4.40;99.90;;;;;;5032498;28;20186;-71
2022/03/17 01:30:09;;;;;;;11.30;1.90;;;4.50;99.90;;;;;;5032817;28;20185;-71
2022/03/17 01:32:35;;;;;;;7.47;1.53;;;4.50;99.90;;;;;;5032643;28;20178;-71
2022/03/17 01:35:00;;;;;;;13.70;2.37;;;4.50;99.90;;;;;;5031994;28;20178;-70
2022/03/17 01:37:27;;;;;;;9.53;2.03;;;4.40;99.90;;;;;;5035422;28;20184;-71
2022/03/17 01:39:54;;;;;;;14.87;2.30;;;4.50;99.90;;;;;;5032148;28;20186;-71
2022/03/17 01:42:20;;;;;;;11.13;2.17;;;4.40;99.90;;;;;;5032143;28;20236;-71
2022/03/17 01:44:45;;;;;;;9.30;1.87;;;4.30;99.90;;;;;;5032565;28;20178;-72
2022/03/17 01:47:29;;;;;;;9.63;1.70;;;4.30;99.90;;;;;;5032120;28;20260;-70
2022/03/17 01:49:56;;;;;;;7.60;1.73;;;4.30;99.90;;;;;;5032537;28;20173;-70
2022/03/17 01:52:22;;;;;;;6.87;2.03;;;4.30;99.90;;;;;;5032225;28;20527;-72
2022/03/17 01:54:47;;;;;;;11.83;1.93;;;4.20;99.90;;;;;;5031961;28;20229;-72
2022/03/17 01:57:13;;;;;;;9.77;1.60;;;4.20;99.90;;;;;;5031656;28;20613;-71
2022/03/17 01:59:40;;;;;;;11.73;1.70;;;4.10;99.90;;;;;;5032106;28;20176;-71
2022/03/17 02:02:09;;;;;;;10.10;2.03;;;4.10;99.90;;;;;;5031807;28;20174;-72
2022/03/17 02:04:35;;;;;;;8.90;1.90;;;4.10;99.90;;;;;;5032220;28;20181;-73
2022/03/17 02:07:05;;;;;;;12.77;2.37;;;4.00;99.90;;;;;;5031660;28;20233;-73
2022/03/17 02:09:32;;;;;;;8.77;1.90;;;4.10;99.90;;;;;;5031772;28;20182;-74
2022/03/17 02:15:04;;;;;;;10.37;1.90;;;4.60;99.90;;;;;;5009927;28;20180;-73
2022/03/17 02:17:30;;;;;;;13.43;2.13;;;4.00;99.90;;;;;;5027603;28;20247;-74
2022/03/17 02:19:58;;;;;;;10.03;1.83;;;4.00;99.90;;;;;;5031770;28;20189;-72
2022/03/17 02:22:25;;;;;;;13.57;1.97;;;3.90;99.90;;;;;;5031569;28;20178;-73
2022/03/17 02:27:41;;;;;;;11.60;1.90;;;4.20;99.90;;;;;;5033130;28;20596;-74
2022/03/17 02:30:10;;;;;;;15.97;2.20;;;3.90;99.90;;;;;;5031610;28;20209;-74
2022/03/17 02:32:37;;;;;;;16.37;1.70;;;3.90;99.90;;;;;;5031452;28;20186;-74
2022/03/17 02:35:08;;;;;;;13.53;2.00;;;3.90;99.90;;;;;;5031235;28;20716;-74
2022/03/17 02:37:34;;;;;;;8.57;1.57;;;3.90;99.90;;;;;;5031332;28;20181;-70
2022/03/17 02:40:06;;;;;;;7.13;1.33;;;4.00;99.90;;;;;;5013764;28;20178;-71
2022/03/17 02:42:32;;;;;;;6.87;1.77;;;3.90;99.90;;;;;;5031122;28;20228;-70
2022/03/17 02:44:59;;;;;;;9.63;1.70;;;3.90;99.90;;;;;;5031034;28;20178;-71
2022/03/17 02:47:26;;;;;;;14.87;1.80;;;3.80;99.90;;;;;;5030942;28;20209;-71
2022/03/17 02:49:55;;;;;;;6.90;1.63;;;3.90;99.90;;;;;;5031083;28;20644;-71
2022/03/17 02:52:22;;;;;;;11.53;1.77;;;3.90;99.90;;;;;;5031106;28;20170;-71
2022/03/17 02:54:48;;;;;;;14.83;1.90;;;4.00;99.90;;;;;;5013376;28;20286;-71
2022/03/17 02:57:14;;;;;;;12.83;1.73;;;4.00;99.90;;;;;;5031068;28;20178;-71
2022/03/17 02:59:40;;;;;;;4.20;1.47;;;3.90;99.90;;;;;;5031300;28;20537;-71
2022/03/17 03:02:05;;;;;;;9.93;1.93;;;3.90;99.90;;;;;;5030796;28;20589;-71
2022/03/17 03:04:34;;;;;;;8.63;1.90;;;3.90;99.90;;;;;;5031007;28;20534;-71
2022/03/17 03:07:04;;;;;;;10.93;1.97;;;4.60;99.90;;;;;;5030582;28;20744;-71
2022/03/17 03:09:30;;;;;;;12.17;1.70;;;3.70;99.90;;;;;;5031098;28;20170;-70
2022/03/17 03:11:57;;;;;;;4.57;1.83;;;3.60;99.90;;;;;;5030995;28;20180;-73
2022/03/17 03:14:23;;;;;;;14.60;1.97;;;3.60;99.90;;;;;;5030675;28;20208;-72
2022/03/17 03:16:49;;;;;;;8.00;1.83;;;3.50;99.90;;;;;;5030693;28;20177;-71
2022/03/17 03:19:15;;;;;;;10.17;2.20;;;3.50;99.90;;;;;;5030682;28;20750;-68
2022/03/17 03:21:43;;;;;;;14.47;2.00;;;3.50;99.90;;;;;;5030860;28;20190;-71
2022/03/17 03:24:10;;;;;;;10.97;2.07;;;3.50;99.90;;;;;;5033042;28;20264;-73
2022/03/17 03:26:36;;;;;;;10.53;2.20;;;3.50;99.90;;;;;;5030457;28;20206;-73
2022/03/17 03:29:05;;;;;;;9.30;2.03;;;3.50;99.90;;;;;;5013142;28;20656;-72
2022/03/17 03:31:30;;;;;;;12.93;1.90;;;3.50;99.90;;;;;;5030647;28;20259;-72
2022/03/17 03:33:56;;;;;;;12.03;1.93;;;3.50;99.90;;;;;;5030613;28;20219;-74
2022/03/17 03:39:06;;;;;;;9.50;1.70;;;3.50;99.90;;;;;;5030862;28;20242;-73
2022/03/17 03:41:31;;;;;;;7.17;1.73;;;3.50;99.90;;;;;;5032482;28;20185;-71
2022/03/17 03:43:58;;;;;;;9.10;1.90;;;3.50;99.90;;;;;;5030136;28;20630;-71
2022/03/17 03:46:24;;;;;;;15.33;1.80;;;3.50;99.90;;;;;;5030105;28;20213;-70
2022/03/17 03:48:49;;;;;;;11.17;2.00;;;3.50;99.90;;;;;;5030103;28;20170;-71
2022/03/17 03:51:15;;;;;;;7.50;2.10;;;3.40;99.90;;;;;;5030408;28;20649;-71
2022/03/17 03:56:26;;;;;;;16.83;2.33;;;3.30;99.90;;;;;;5015324;28;20185;-70
2022/03/17 03:58:52;;;;;;;9.67;2.17;;;3.30;99.90;;;;;;5030475;28;20236;-70
2022/03/17 04:01:18;;;;;;;8.83;1.63;;;3.30;99.90;;;;;;5030363;28;20178;-71
2022/03/17 04:03:44;;;;;;;17.70;2.20;;;3.20;99.90;;;;;;5030495;28;20251;-69
2022/03/17 04:06:10;;;;;;;9.00;2.00;;;3.20;99.90;;;;;;5033145;28;20728;-70
2022/03/17 04:08:36;;;;;;;10.03;2.20;;;3.30;99.90;;;;;;5030246;28;20267;-69
2022/03/17 04:11:02;;;;;;;8.53;1.90;;;3.30;99.90;;;;;;5030345;28;20170;-69
2022/03/17 04:13:27;;;;;;;7.70;1.67;;;3.30;99.90;;;;;;5030324;28;20673;-69
2022/03/17 04:15:53;;;;;;;14.80;2.30;;;3.30;99.90;;;;;;5012823;28;20192;-69
2022/03/17 04:18:19;;;;;;;16.80;2.60;;;3.40;99.90;;;;;;5030178;28;20261;-69
2022/03/17 04:20:44;;;;;;;10.43;2.10;;;3.50;99.90;;;;;;5030429;28;20178;-78
2022/03/17 04:23:10;;;;;;;14.77;2.57;;;3.50;99.90;;;;;;5030318;28;20610;-84
2022/03/17 04:25:36;;;;;;;9.37;2.20;;;3.50;99.90;;;;;;5030180;28;20181;-73
2022/03/17 04:28:04;;;;;;;12.73;1.90;;;3.50;99.90;;;;;;5030500;28;20185;-77
2022/03/17 04:30:30;;;;;;;17.33;2.57;;;3.50;99.90;;;;;;5030344;28;20189;-75
2022/03/17 04:32:56;;;;;;;13.87;2.80;;;3.50;99.90;;;;;;5030234;28;20648;-76
2022/03/17 04:35:22;;;;;;;14.07;2.90;;;3.50;99.90;;;;;;5032214;28;20170;-76
2022/03/17 04:37:47;;;;;;;8.40;2.50;;;3.50;99.90;;;;;;5033738;28;20650;-76
2022/03/17 04:40:13;;;;;;;18.40;3.00;;;3.00;99.90;;;;;;5033899;28;20696;-76
2022/03/17 04:42:39;;;;;;;12.60;3.47;;;3.30;99.90;;;;;;5033454;28;20197;-77
2022/03/17 04:45:05;;;;;;;21.23;3.13;;;3.30;99.90;;;;;;5015887;28;20176;-79
2022/03/17 04:47:31;;;;;;;9.93;2.80;;;3.30;99.90;;;;;;5033247;28;20704;-78
2022/03/17 04:49:56;;;;;;;12.50;2.63;;;3.30;99.90;;;;;;5033652;28;20174;-78
2022/03/17 04:55:06;;;;;;;11.23;3.10;;;3.30;99.90;;;;;;5033180;28;20300;-77
2022/03/17 04:57:32;;;;;;;15.17;3.20;;;3.30;99.90;;;;;;5035071;28;20230;-77
2022/03/17 04:59:58;;;;;;;11.80;3.13;;;3.30;99.90;;;;;;5033308;28;20174;-77
2022/03/17 05:02:23;;;;;;;17.87;3.57;;;3.30;99.90;;;;;;5033013;28;20633;-77
2022/03/17 05:04:51;;;;;;;13.60;3.47;;;3.20;99.90;;;;;;5033086;28;20256;-77
2022/03/17 05:07:16;;;;;;;17.27;3.50;;;3.10;99.90;;;;;;5032919;28;20668;-77
2022/03/17 05:09:42;;;;;;;19.77;3.83;;;3.30;99.90;;;;;;5033333;28;20260;-77
2022/03/17 05:12:09;;;;;;;14.53;4.20;;;3.20;99.90;;;;;;5032884;28;20611;-81
2022/03/17 05:14:35;;;;;;;13.67;3.50;;;3.20;99.90;;;;;;5032911;28;20528;-80
2022/03/17 05:17:00;;;;;;;13.60;3.73;;;3.20;99.90;;;;;;5032655;28;20188;-80
2022/03/17 05:19:26;;;;;;;16.40;4.03;;;3.10;99.90;;;;;;5032907;28;20265;-79
2022/03/17 05:21:52;;;;;;;19.80;4.17;;;3.20;99.90;;;;;;5031375;28;20174;-81
2022/03/17 05:24:18;;;;;;;28.27;4.30;;;3.20;99.90;;;;;;5032580;28;20178;-79
2022/03/17 05:26:45;;;;;;;13.90;4.43;;;3.10;99.90;;;;;;5014821;28;20221;-79
2022/03/17 05:29:12;;;;;;;17.13;4.37;;;3.10;99.90;;;;;;5032902;28;20227;-80
2022/03/17 05:31:38;;;;;;;15.10;4.00;;;3.10;99.90;;;;;;5032595;28;20185;-80
2022/03/17 05:34:04;;;;;;;15.40;4.57;;;3.10;99.90;;;;;;5032519;28;20185;-79
2022/03/17 05:36:30;;;;;;;23.23;4.90;;;3.10;99.90;;;;;;5032268;28;20178;-77
2022/03/17 05:38:55;;;;;;;14.47;4.33;;;3.10;99.90;;;;;;5032550;28;20170;-74
2022/03/17 05:41:22;;;;;;;21.37;4.00;;;3.10;99.90;;;;;;5014417;28;20196;-75
2022/03/17 05:43:47;;;;;;;10.23;4.10;;;3.10;99.90;;;;;;5032451;28;20710;-75
2022/03/17 05:46:14;;;;;;;27.20;4.47;;;3.10;99.90;;;;;;5031610;28;20203;-75
2022/03/17 05:48:40;;;;;;;20.80;4.90;;;3.00;99.90;;;;;;5032146;28;20173;-75
2022/03/17 05:51:06;;;;;;;20.40;5.27;;;3.20;99.90;;;;;;5014633;28;20192;-78
2022/03/17 05:53:31;;;;;;;34.73;5.77;;;3.30;99.90;;;;;;5031737;28;20201;-78
2022/03/17 05:55:57;;;;;;;25.50;5.27;;;3.60;99.90;;;;;;5032177;28;20272;-78
2022/03/17 05:58:23;;;;;;;20.17;5.27;;;3.90;99.90;;;;;;5013282;28;20561;-78
2022/03/17 06:00:48;;;;;;;36.13;6.13;;;4.00;99.90;;;;;;5031909;28;20181;-78
2022/03/17 06:03:14;;;;;;;27.73;5.37;;;4.30;99.90;;;;;;5031820;28;20178;-78
2022/03/17 06:05:40;;;;;;;19.60;5.03;;;4.20;99.90;;;;;;5031995;28;20177;-78
2022/03/17 06:08:05;;;;;;;34.37;6.10;;;4.20;99.90;;;;;;5031985;28;20644;-79
2022/03/17 06:10:33;;;;;;;28.83;5.77;;;4.30;99.90;;;;;;5031881;28;20184;-79
2022/03/17 06:13:03;;;;;;;18.47;4.87;;;4.30;99.90;;;;;;5012231;28;20189;-78
2022/03/17 06:15:29;;;;;;;23.07;4.73;;;4.10;99.90;;;;;;5020763;28;20173;-78
2022/03/17 06:17:57;;;;;;;21.20;4.90;;;4.00;99.90;;;;;;5031780;28;20189;-78
2022/03/17 06:20:29;;;;;;;27.03;5.37;;;4.00;99.90;;;;;;5031857;28;20180;-79
2022/03/17 06:22:57;;;;;;;36.10;5.90;;;4.10;99.90;;;;;;5031495;28;20193;-78
2022/03/17 06:25:24;;;;;;;18.80;5.30;;;3.70;99.90;;;;;;5031571;28;20184;-78
2022/03/17 06:27:50;;;;;;;27.20;6.20;;;4.00;99.90;;;;;;5031718;28;20177;-78
2022/03/17 06:30:18;;;;;;;18.97;5.37;;;3.90;99.90;;;;;;5031087;28;20185;-77
2022/03/17 06:32:44;;;;;;;18.20;5.47;;;4.00;99.90;;;;;;5031467;28;20252;-73
2022/03/17 06:35:15;;;;;;;29.93;6.53;;;3.80;99.90;;;;;;5031705;28;20198;-73
2022/03/17 06:37:41;;;;;;;25.00;6.53;;;3.90;99.90;;;;;;5031468;28;20235;-73
2022/03/17 06:40:07;;;;;;;24.60;7.93;;;3.90;99.90;;;;;;5031516;28;20177;-74
2022/03/17 06:42:33;;;;;;;25.43;6.13;;;3.90;99.90;;;;;;5031025;28;20223;-74
2022/03/17 06:44:59;;;;;;;18.27;6.10;;;3.90;99.90;;;;;;5031362;28;20261;-74
2022/03/17 06:47:25;;;;;;;26.03;6.73;;;3.90;99.90;;;;;;5030972;28;20288;-75
2022/03/17 06:49:51;;;;;;;27.27;6.83;;;3.90;99.90;;;;;;5031087;28;20201;-76
2022/03/17 06:52:17;;;;;;;25.30;7.83;;;4.00;99.90;;;;;;5031110;28;20212;-76
2022/03/17 06:54:43;;;;;;;30.83;8.20;;;4.30;99.90;;;;;;5030760;28;20633;-76
2022/03/17 06:57:09;;;;;;;27.63;6.57;;;4.20;99.90;;;;;;5030949;28;20656;-75
2022/03/17 06:59:34;;;;;;;32.50;8.93;;;4.30;99.90;;;;;;5030944;28;20182;-75
2022/03/17 07:02:00;;;;;;;35.83;7.90;;;4.50;99.90;;;;;;5030944;28;20214;-75
2022/03/17 07:04:26;;;;;;;29.57;8.80;;;4.50;99.90;;;;;;5030673;28;20178;-73
2022/03/17 07:06:52;;;;;;;25.40;8.03;;;4.50;99.90;;;;;;5030532;28;20206;-73
2022/03/17 07:09:17;;;;;;;31.93;8.80;;;4.70;99.90;;;;;;5030899;28;20170;-72
2022/03/17 07:11:44;;;;;;;30.03;8.27;;;4.80;99.90;;;;;;5031075;28;20182;-72
2022/03/17 07:14:10;;;;;;;30.77;8.23;;;4.80;99.90;;;;;;5030815;28;20173;-72
2022/03/17 07:16:36;;;;;;;29.40;9.37;;;4.90;99.90;;;;;;5030927;28;20512;-72
2022/03/17 07:19:02;;;;;;;26.57;6.53;;;4.90;99.90;;;;;;5030834;28;20185;-63
2022/03/17 07:21:28;;;;;;;32.30;6.87;;;5.00;99.90;;;;;;5030529;28;20284;-63
2022/03/17 07:23:54;;;;;;;28.77;8.47;;;5.20;99.90;;;;;;5026662;28;20178;-63
2022/03/17 07:26:20;;;;;;;33.03;7.07;;;5.30;99.90;;;;;;5024886;28;20314;-63
2022/03/17 07:28:46;;;;;;;32.50;7.20;;;5.30;99.90;;;;;;5030521;28;20282;-63
2022/03/17 07:31:12;;;;;;;23.87;5.17;;;5.50;99.90;;;;;;5030442;28;20215;-61
2022/03/17 07:33:37;;;;;;;41.40;6.77;;;5.70;99.90;;;;;;5030473;28;20178;-64
2022/03/17 07:36:06;;;;;;;34.67;4.80;;;5.80;99.90;;;;;;5030236;28;20256;-75
2022/03/17 07:38:32;;;;;;;35.23;5.67;;;5.90;99.90;;;;;;5030299;28;20173;-75
2022/03/17 07:40:57;;;;;;;45.30;10.50;;;6.00;99.90;;;;;;5012999;28;20269;-73
2022/03/17 07:43:23;;;;;;;44.77;7.90;;;6.10;99.90;;;;;;5037234;28;20192;-73
2022/03/17 07:45:49;;;;;;;38.33;6.60;;;6.20;99.90;;;;;;5030460;28;20212;-72
2022/03/17 07:48:15;;;;;;;21.43;5.77;;;6.20;99.90;;;;;;5012978;28;20668;-74
2022/03/17 07:50:41;;;;;;;36.70;7.03;;;6.30;99.90;;;;;;5030459;28;20198;-73
2022/03/17 07:53:06;;;;;;;29.53;5.33;;;6.30;99.90;;;;;;5030553;28;20655;-74
2022/03/17 07:55:33;;;;;;;18.50;3.97;;;6.40;99.90;;;;;;5030617;28;20711;-74
2022/03/17 07:58:00;;;;;;;18.97;4.13;;;6.50;99.90;;;;;;5030487;28;20189;-74
2022/03/17 08:00:26;;;;;;;28.60;4.90;;;6.60;99.90;;;;;;5030807;28;20308;-74
2022/03/17 08:02:51;;;;;;;22.60;4.40;;;6.70;99.90;;;;;;5030563;28;20245;-73
2022/03/17 08:05:17;;;;;;;35.43;4.70;;;6.80;99.90;;;;;;5030181;28;20181;-65
2022/03/17 08:07:43;;;;;;;21.87;4.30;;;6.90;99.90;;;;;;5030209;28;20316;-65
2022/03/17 08:10:09;;;;;;;21.03;3.93;;;7.00;99.90;;;;;;5032005;28;20269;-72
2022/03/17 08:12:35;;;;;;;16.73;3.10;;;7.20;99.90;;;;;;5033859;28;20182;-74
2022/03/17 08:15:05;;;;;;;21.67;3.30;;;7.30;99.90;;;;;;5034012;28;20706;-72
2022/03/17 08:17:31;;;;;;;11.33;2.43;;;7.50;99.90;;;;;;5033857;28;20659;-73
2022/03/17 08:19:57;;;;;;;17.97;3.20;;;7.50;99.90;;;;;;5034098;28;20261;-72
2022/03/17 08:22:24;;;;;;;24.73;3.03;;;7.60;99.90;;;;;;5034045;28;20178;-72
2022/03/17 08:24:50;;;;;;;15.87;2.90;;;7.80;99.90;;;;;;5015981;28;20181;-71
2022/03/17 08:27:16;;;;;;;20.30;4.00;;;7.80;99.90;;;;;;5032456;28;20224;-72
2022/03/17 08:29:42;;;;;;;19.03;2.47;;;8.00;99.90;;;;;;5033845;28;20178;-71
2022/03/17 08:32:09;;;;;;;8.93;1.90;;;8.20;99.90;;;;;;5033782;28;20184;-70
2022/03/17 08:34:35;;;;;;;14.43;1.97;;;8.30;99.90;;;;;;5034037;28;20178;-71
2022/03/17 08:37:00;;;;;;;16.93;2.10;;;8.60;99.90;;;;;;5032805;28;20245;-72
2022/03/17 08:39:26;;;;;;;10.57;1.00;;;8.80;99.90;;;;;;5032921;28;20217;-68
2022/03/17 08:41:53;;;;;;;12.10;1.70;;;9.80;99.90;;;;;;5032419;28;20185;-73
2022/03/17 08:44:19;;;;;;;11.93;1.80;;;12.90;99.90;;;;;;5035149;28;20655;-74
2022/03/17 08:49:30;;;;;;;6.87;0.90;;;15.50;99.90;;;;;;5033645;28;20180;-75
2022/03/17 08:51:59;;;;;;;7.63;1.77;;;15.20;99.90;;;;;;5033425;28;20174;-74
2022/03/17 08:54:27;;;;;;;5.90;1.67;;;14.10;99.90;;;;;;5032866;28;20214;-74
2022/03/17 08:56:59;;;;;;;16.17;1.70;;;13.00;99.90;;;;;;5032329;28;20174;-62
2022/03/17 08:59:31;;;;;;;12.45;1.67;;;12.50;99.90;;;;;;5033222;28;20178;-67
2022/03/17 09:02:01;;;;;;;8.57;1.42;;;13.70;99.90;;;;;;5033124;28;20240;-72
2022/03/17 09:04:28;;;;;;;7.90;1.60;;;15.80;99.90;;;;;;5032917;28;20653;-73
2022/03/17 09:06:59;;;;;;;6.82;1.40;;;17.10;99.90;;;;;;5033046;28;20225;-63
2022/03/17 09:09:30;;;;;;;5.38;1.25;;;17.30;99.90;;;;;;5032934;28;20246;-66
2022/03/17 09:11:56;;;;;;;10.13;1.13;;;17.10;99.90;;;;;;5032911;28;20779;-65
2022/03/17 09:14:22;;;;;;;12.70;1.40;;;16.90;99.90;;;;;;5032676;28;20202;-65
2022/03/17 09:16:48;;;;;;;11.48;1.40;;;18.20;99.90;;;;;;5032699;28;20173;-64
2022/03/17 09:19:14;;;;;;;12.23;1.50;;;18.70;99.90;;;;;;5032684;28;20332;-66
2022/03/17 09:21:40;;;;;;;8.10;1.65;;;19.20;99.90;;;;;;5031557;28;20657;-66
2022/03/17 09:24:06;;;;;;;8.07;1.50;;;19.80;99.90;;;;;;5014958;28;20174;-66
2022/03/17 09:26:32;;;;;;;8.82;1.38;;;19.70;99.90;;;;;;5032692;28;20210;-66
2022/03/17 09:28:59;;;;;;;12.20;1.45;;;18.90;99.90;;;;;;5032521;28;20235;-65
2022/03/17 09:31:24;;;;;;;14.35;1.98;;;20.10;99.90;;;;;;5032288;28;20188;-65
2022/03/17 09:33:50;;;;;;;8.10;1.70;;;20.80;99.90;;;;;;5014898;28;20272;-65
2022/03/17 09:36:16;;;;;;;9.52;1.67;;;19.90;99.90;;;;;;5032743;28;20170;-63
2022/03/17 09:38:42;;;;;;;7.10;1.25;;;19.90;99.90;;;;;;5032469;28;20544;-64
2022/03/17 09:41:24;;;;;;;10.10;1.25;;;20.60;99.90;;;;;;5031186;28;20177;-66
2022/03/17 09:43:53;;;;;;;4.90;1.45;;;20.40;99.90;;;;;;5032238;28;20236;-66
2022/03/17 09:46:21;;;;;;;7.07;1.45;;;21.50;99.90;;;;;;5032266;28;20214;-66
2022/03/17 09:48:52;;;;;;;5.93;1.30;;;20.50;99.90;;;;;;5031957;28;20723;-66
2022/03/17 09:51:24;;;;;;;7.13;1.15;;;20.70;99.90;;;;;;5032256;28;20667;-68
2022/03/17 09:53:53;;;;;;;9.35;1.85;;;20.20;99.90;;;;;;5031480;28;20218;-70
2022/03/17 09:56:20;;;;;;;6.25;1.40;;;20.70;99.90;;;;;;5034431;28;20190;-79
2022/03/17 09:58:47;;;;;;;9.20;1.38;;;20.20;99.90;;;;;;5034128;28;20212;-76
2022/03/17 10:01:15;;;;;;;9.68;1.67;;;20.80;99.90;;;;;;5032221;28;20185;-70
2022/03/17 10:03:41;;;;;;;8.98;1.40;;;20.20;99.90;;;;;;5031143;28;20166;-70
2022/03/17 10:06:09;;;;;;;9.68;1.35;;;19.80;99.90;;;;;;5031725;28;20213;-69
2022/03/17 10:08:38;;;;;;;8.95;1.70;;;19.20;99.90;;;;;;5032084;28;20181;-70
2022/03/17 10:11:04;;;;;;;6.38;1.42;;;19.60;99.90;;;;;;5027719;28;20174;-70
2022/03/17 10:13:31;;;;;;;9.77;1.20;;;19.80;99.90;;;;;;5031358;28;20666;-69
2022/03/17 10:16:09;;;;;;;9.02;1.67;;;20.00;99.90;;;;;;5034885;28;20178;-70
2022/03/17 10:18:38;;;;;;;8.05;1.40;;;21.10;99.90;;;;;;5033331;28;20186;-69
2022/03/17 10:21:08;;;;;;;9.88;1.27;;;20.90;99.90;;;;;;5031513;28;20220;-69
2022/03/17 10:23:42;;;;;;;6.25;1.42;;;21.00;99.90;;;;;;5030948;28;20178;-69
2022/03/17 10:26:08;;;;;;;6.80;1.17;;;20.90;99.90;;;;;;5031490;28;20229;-68
2022/03/17 10:28:33;;;;;;;8.48;1.20;;;20.30;99.90;;;;;;5034205;28;20671;-69
2022/03/17 10:31:04;;;;;;;9.38;1.38;;;21.00;99.90;;;;;;5031480;28;20170;-68
2022/03/17 10:33:30;;;;;;;9.23;1.45;;;20.80;99.90;;;;;;5030870;28;20201;-68
2022/03/17 10:36:16;;;;;;;5.47;1.30;;;21.50;99.90;;;;;;5031386;28;20212;-68
2022/03/17 10:38:43;;;;;;;3.05;1.00;;;20.60;99.90;;;;;;5013728;28;20180;-69
2022/03/17 10:41:12;;;;;;;7.03;1.20;;;20.20;99.90;;;;;;5031028;28;20174;-68
2022/03/17 10:43:39;;;;;;;10.07;1.80;;;21.00;99.90;;;;;;5030852;28;20233;-68
2022/03/17 10:46:12;;;;;;;4.05;0.80;;;22.30;99.90;;;;;;5031164;28;20200;-68
2022/03/17 10:49:01;;;;;;;9.27;1.38;;;20.90;99.90;;;;;;5031013;28;20173;-68
2022/03/17 10:51:43;;;;;;;6.40;1.52;;;20.90;99.90;;;;;;5031250;28;20217;-68
2022/03/17 10:54:11;;;;;;;6.85;1.10;;;18.90;99.90;;;;;;5030908;28;20221;-68
2022/03/17 10:56:38;;;;;;;7.28;1.98;;;19.80;99.90;;;;;;5031055;28;20174;-68
2022/03/17 10:59:07;;;;;;;6.95;1.35;;;19.10;99.90;;;;;;5031108;28;20663;-69
2022/03/17 11:01:40;;;;;;;6.88;1.20;;;20.50;99.90;;;;;;5031011;28;20591;-68
2022/03/17 11:04:07;;;;;;;7.72;1.10;;;19.40;99.90;;;;;;5030795;28;20268;-66
2022/03/17 11:06:33;;;;;;;9.57;1.38;;;19.20;99.90;;;;;;5030721;28;20700;-66
2022/03/17 11:09:01;;;;;;;6.85;1.08;;;17.90;99.90;;;;;;5029206;28;20189;-65
2022/03/17 11:11:28;;;;;;;6.45;0.98;;;16.60;99.90;;;;;;5030876;28;20373;-66
2022/03/17 11:13:56;;;;;;;8.82;1.27;;;16.00;99.90;;;;;;5030755;28;20165;-66
2022/03/17 11:16:29;;;;;;;5.28;1.17;;;16.00;99.90;;;;;;5030727;28;20224;-66
2022/03/17 11:18:55;;;;;;;6.30;0.90;;;16.90;99.90;;;;;;5030429;28;20165;-66
2022/03/17 11:21:30;;;;;;;4.75;0.90;;;18.30;99.90;;;;;;5030302;28;20241;-64
2022/03/17 11:24:04;;;;;;;3.63;1.00;;;19.60;99.90;;;;;;5030588;28;20193;-64
2022/03/17 11:26:43;;;;;;;2.50;0.80;;;20.00;99.90;;;;;;5030206;28;20851;-64
2022/03/17 11:29:17;;;;;;;2.38;0.77;;;20.50;99.90;;;;;;5030504;28;20174;-65
2022/03/17 11:31:57;;;;;;;8.80;1.17;;;19.30;99.90;;;;;;5012652;28;20223;-65
2022/03/17 11:34:38;;;;;;;2.15;0.75;;;19.40;99.90;;;;;;5030336;28;20193;-66
2022/03/17 11:37:20;;;;;;;6.05;0.95;;;20.90;99.90;;;;;;5012689;28;20177;-66
2022/03/17 11:39:54;;;;;;;5.70;0.90;;;20.60;99.90;;;;;;5030215;28;20184;-66
2022/03/17 11:42:43;;;;;;;3.63;0.63;;;21.00;99.90;;;;;;5030590;28;20627;-66
2022/03/17 11:45:34;;;;;;;2.08;0.60;;;19.80;99.90;;;;;;5032438;28;20230;-66
2022/03/17 11:48:02;;;;;;;5.55;0.60;;;19.00;99.90;;;;;;5034236;28;20189;-66
2022/03/17 11:50:34;;;;;;;8.25;1.20;;;18.60;99.90;;;;;;5034364;28;20187;-66
2022/03/17 11:53:22;;;;;;;3.28;0.90;;;18.70;99.90;;;;;;5034140;28;20181;-65
2022/03/17 11:55:51;;;;;;;5.70;0.90;;;19.30;99.90;;;;;;5034035;28;20218;-65
2022/03/17 11:58:20;;;;;;;4.43;0.75;;;19.70;99.90;;;;;;5034235;28;20768;-66
2022/03/17 12:00:53;;;;;;;4.47;0.90;;;20.10;99.90;;;;;;5034238;28;20201;-67
2022/03/17 12:03:39;;;;;;;5.32;0.95;;;20.60;99.90;;;;;;5034087;28;20180;-70
2022/03/17 12:06:32;;;;;;;3.47;0.63;;;20.00;99.90;;;;;;5033572;28;20749;-66
2022/03/17 12:09:10;;;;;;;4.68;0.50;;;19.30;99.90;;;;;;5032187;28;20215;-67
2022/03/17 12:11:44;;;;;;;1.55;0.50;;;18.20;99.90;;;;;;5033592;28;20208;-68
2022/03/17 12:14:22;;;;;;;2.28;0.50;;;18.80;99.90;;;;;;5033490;28;20170;-67
2022/03/17 12:16:57;;;;;;;3.08;0.57;;;18.50;99.90;;;;;;5035094;28;20196;-68
2022/03/17 12:19:39;;;;;;;4.35;0.80;;;18.80;99.90;;;;;;5033924;28;20181;-67
2022/03/17 12:22:07;;;;;;;5.60;0.80;;;19.40;99.90;;;;;;5016409;28;20585;-67
2022/03/17 12:24:51;;;;;;;6.78;0.80;;;19.40;99.90;;;;;;5033558;28;20174;-67
2022/03/17 12:27:35;;;;;;;4.15;0.82;;;18.80;99.90;;;;;;5018432;28;20721;-68
2022/03/17 12:30:11;;;;;;;5.55;1.00;;;19.70;99.90;;;;;;5033713;28;20170;-67
2022/03/17 12:32:51;;;;;;;2.20;0.68;;;20.40;99.90;;;;;;5033589;28;20188;-67
2022/03/17 12:35:19;;;;;;;4.32;1.02;;;20.60;99.90;;;;;;5033746;28;20178;-68
2022/03/17 12:37:45;;;;;;;6.00;1.00;;;21.40;99.90;;;;;;5033537;28;20193;-67
2022/03/17 12:40:19;;;;;;;6.80;0.90;;;20.90;99.90;;;;;;5033794;28;20514;-67
2022/03/17 12:42:47;;;;;;;9.05;1.13;;;20.90;99.90;;;;;;5033561;28;20177;-67
2022/03/17 12:45:18;;;;;;;7.68;1.00;;;20.70;99.90;;;;;;5033434;28;20182;-67
2022/03/17 12:47:46;;;;;;;5.88;1.08;;;20.70;99.90;;;;;;5033345;28;20214;-66
2022/03/17 12:50:14;;;;;;;3.55;0.95;;;20.20;99.90;;;;;;5033477;28;20224;-67
2022/03/17 12:52:42;;;;;;;4.68;1.20;;;19.80;99.90;;;;;;5033447;28;20174;-67
2022/03/17 12:55:10;;;;;;;6.22;1.27;;;20.70;99.90;;;;;;5032957;28;20537;-67
2022/03/17 12:57:37;;;;;;;4.05;1.13;;;19.80;99.90;;;;;;5033222;28;20265;-67
2022/03/17 13:00:05;;;;;;;5.03;0.82;;;19.30;99.90;;;;;;5033194;28;20170;-66
2022/03/17 13:02:31;;;;;;;3.72;0.80;;;18.40;99.90;;;;;;5031812;28;20174;-67
2022/03/17 13:07:45;;;;;;;5.10;0.80;;;18.90;99.90;;;;;;5045690;28;20216;-68
2022/03/17 13:10:10;;;;;;;6.45;0.95;;;18.60;99.90;;;;;;5033019;28;20162;-68
2022/03/17 13:15:24;;;;;;;9.55;1.10;;;18.90;99.90;;;;;;5033172;28;20177;-66